Time;durP1;ratioP1;P1;durP2;ratioP2;P2;SDS_P1;SDS_P2;PMS_P1;PMS_P2;Temp;Humidity;BMP_temperature;BMP_pressure;BME280_temperature;BME280_humidity;BME280_pressure;Samples;Min_cycle;Max_cycle;Signal;HPM_P1;HPM_P2
2023/03/23 00:00:45;;;;;;;4.13;2.83;;;10.70;99.90;;;;;;6244348;23;20341;-85
2023/03/23 00:03:11;;;;;;;2.67;2.30;;;10.70;99.90;;;;;;6244507;23;20461;-84
2023/03/23 00:05:40;;;;;;;4.40;2.60;;;10.80;99.90;;;;;;6244063;23;20340;-84
2023/03/23 00:08:08;;;;;;;3.00;2.42;;;10.70;99.90;;;;;;6244601;23;20398;-86
2023/03/23 00:10:35;;;;;;;3.85;2.45;;;10.70;99.90;;;;;;6244129;23;20367;-84
2023/03/23 00:13:02;;;;;;;3.55;2.30;;;10.70;99.90;;;;;;6216952;23;20348;-85
2023/03/23 00:15:33;;;;;;;4.27;2.70;;;10.70;99.90;;;;;;6243279;23;20442;-84
2023/03/23 00:18:06;;;;;;;3.05;2.20;;;10.80;99.90;;;;;;6216560;23;20416;-84
2023/03/23 00:20:40;;;;;;;3.63;2.65;;;10.70;99.90;;;;;;6217551;23;20807;-85
2023/03/23 00:23:07;;;;;;;3.10;2.40;;;10.70;99.90;;;;;;6243830;23;20400;-85
2023/03/23 00:25:35;;;;;;;4.75;2.70;;;10.60;99.90;;;;;;6216747;23;20347;-85
2023/03/23 00:28:04;;;;;;;3.95;2.42;;;10.80;99.90;;;;;;6244633;23;20435;-84
2023/03/23 00:30:37;;;;;;;3.72;2.65;;;10.70;99.90;;;;;;6216520;23;20340;-85
2023/03/23 00:33:03;;;;;;;3.58;2.47;;;10.60;99.90;;;;;;6218041;23;20344;-86
2023/03/23 00:35:43;;;;;;;5.00;2.90;;;10.60;99.90;;;;;;6218655;23;20906;-86
2023/03/23 00:38:12;;;;;;;3.80;2.70;;;10.50;99.90;;;;;;6219574;23;20382;-87
2023/03/23 00:40:38;;;;;;;3.63;2.72;;;10.50;99.90;;;;;;6220566;23;20403;-86
2023/03/23 00:43:04;;;;;;;3.03;2.50;;;10.50;99.90;;;;;;6221382;23;20336;-87
2023/03/23 00:45:37;;;;;;;3.43;2.50;;;10.40;99.90;;;;;;6223237;23;20400;-86
2023/03/23 00:48:08;;;;;;;3.28;2.53;;;10.40;99.90;;;;;;6241018;22;20351;-86
2023/03/23 00:50:36;;;;;;;4.53;2.30;;;10.40;99.90;;;;;;6241865;23;20837;-86
2023/03/23 00:53:12;;;;;;;3.20;2.70;;;10.30;99.90;;;;;;6255384;23;20343;-85
2023/03/23 00:55:43;;;;;;;6.70;2.50;;;10.20;99.90;;;;;;6216750;23;20337;-85
2023/03/23 00:58:12;;;;;;;3.43;2.40;;;10.10;99.90;;;;;;6216014;23;20363;-86
2023/03/23 01:00:43;;;;;;;4.65;2.53;;;10.00;99.90;;;;;;6213664;23;20376;-85
2023/03/23 01:03:18;;;;;;;2.90;2.50;;;10.00;99.90;;;;;;6216313;23;20332;-85
2023/03/23 01:05:47;;;;;;;4.65;2.78;;;10.00;99.90;;;;;;6215344;23;20344;-87
2023/03/23 01:08:14;;;;;;;7.18;2.72;;;10.10;99.90;;;;;;6215291;23;20406;-86
2023/03/23 01:10:42;;;;;;;3.63;2.80;;;10.10;99.90;;;;;;6216037;23;20661;-86
2023/03/23 01:13:24;;;;;;;;;;;;;;;;;;;;;
2023/03/23 01:15:52;;;;;;;4.78;2.60;;;10.10;99.90;;;;;;6243974;23;20403;-85
2023/03/23 01:18:18;;;;;;;3.58;2.60;;;10.00;99.90;;;;;;6215750;23;20361;-85
2023/03/23 01:20:49;;;;;;;3.83;2.70;;;10.00;99.90;;;;;;6242959;23;20383;-85
2023/03/23 01:23:19;;;;;;;3.78;2.70;;;10.10;99.90;;;;;;6216368;23;20440;-85
2023/03/23 01:25:45;;;;;;;4.40;3.13;;;10.10;99.90;;;;;;6243457;23;20773;-86
2023/03/23 01:28:13;;;;;;;4.97;2.93;;;10.00;99.90;;;;;;6240506;23;20348;-87
2023/03/23 01:30:44;;;;;;;4.03;2.83;;;10.10;99.90;;;;;;6243574;23;20349;-86
2023/03/23 01:33:10;;;;;;;5.18;3.00;;;10.10;99.90;;;;;;6243062;23;20367;-85
2023/03/23 01:35:37;;;;;;;4.47;3.08;;;10.10;99.90;;;;;;6243284;23;20336;-86
2023/03/23 01:38:06;;;;;;;3.80;2.77;;;10.10;99.90;;;;;;6215904;23;20419;-87
2023/03/23 01:40:37;;;;;;;3.30;2.97;;;10.30;99.90;;;;;;6216881;23;20812;-86
2023/03/23 01:43:14;;;;;;;3.60;2.67;;;10.30;99.90;;;;;;6242380;23;20380;-84
2023/03/23 01:45:43;;;;;;;4.70;2.97;;;10.40;99.90;;;;;;6215964;23;20336;-84
2023/03/23 01:48:18;;;;;;;3.92;2.33;;;10.50;99.90;;;;;;6242659;23;20332;-85
2023/03/23 01:51:00;;;;;;;3.45;2.50;;;10.60;99.90;;;;;;6215550;23;20355;-85
2023/03/23 01:53:35;;;;;;;2.80;2.50;;;10.70;99.90;;;;;;6216082;23;20432;-85
2023/03/23 01:56:02;;;;;;;2.85;2.47;;;10.80;99.90;;;;;;6215972;23;20370;-85
2023/03/23 01:58:37;;;;;;;3.70;2.33;;;10.90;99.90;;;;;;6242160;23;20360;-85
2023/03/23 02:01:11;;;;;;;3.80;2.40;;;10.80;99.90;;;;;;6169901;23;20389;-86
2023/03/23 02:03:41;;;;;;;4.72;2.60;;;10.90;99.90;;;;;;6179846;23;20681;-84
2023/03/23 02:06:07;;;;;;;3.67;2.40;;;10.90;99.90;;;;;;6182163;23;20369;-86
2023/03/23 02:08:33;;;;;;;3.28;2.50;;;11.00;99.90;;;;;;6209873;23;20376;-86
2023/03/23 02:11:00;;;;;;;3.65;2.45;;;11.10;99.90;;;;;;6212007;23;20346;-85
2023/03/23 02:13:27;;;;;;;3.00;2.70;;;11.10;99.90;;;;;;6186544;23;20448;-85
2023/03/23 02:16:02;;;;;;;2.85;2.55;;;11.00;99.90;;;;;;6212589;23;20370;-86
2023/03/23 02:18:55;;;;;;;4.40;2.63;;;11.00;99.90;;;;;;6214199;23;20373;-85
2023/03/23 02:21:57;;;;;;;;;;;;;;;;;;;;;
2023/03/23 02:25:11;;;;;;;5.57;2.70;;;11.00;99.90;;;;;;6223361;23;20388;-84
2023/03/23 02:28:32;;;;;;;;;;;;;;;;;;;;;
2023/03/23 02:35:11;;;;;;;4.28;2.80;;;11.10;99.90;;;;;;6184041;23;20433;-84
2023/03/23 02:38:05;;;;;;;3.55;2.45;;;11.20;99.90;;;;;;6064210;23;20361;-85
2023/03/23 02:41:02;;;;;;;2.88;2.40;;;11.30;99.90;;;;;;6072570;23;20460;-85
2023/03/23 02:44:30;;;;;;;4.32;2.38;;;11.30;99.90;;;;;;6164324;23;20384;-85
2023/03/23 02:47:00;;;;;;;5.38;2.85;;;11.40;99.90;;;;;;6207776;23;20852;-86
2023/03/23 02:49:42;;;;;;;5.20;2.58;;;11.20;99.90;;;;;;6186701;23;20408;-86
2023/03/23 02:52:35;;;;;;;3.55;2.55;;;11.20;99.90;;;;;;6213873;23;20330;-86
2023/03/23 02:55:05;;;;;;;4.20;2.90;;;11.30;99.90;;;;;;6186885;23;20825;-85
2023/03/23 02:57:31;;;;;;;2.88;2.53;;;11.30;99.90;;;;;;6212763;23;20337;-84
2023/03/23 03:00:09;;;;;;;2.92;2.50;;;11.30;99.90;;;;;;6181062;23;20407;-84
2023/03/23 03:02:47;;;;;;;2.63;2.10;;;11.40;99.90;;;;;;6182960;23;20336;-85
2023/03/23 03:05:33;;;;;;;4.20;2.85;;;11.50;99.90;;;;;;6180460;23;20811;-86
2023/03/23 03:08:18;;;;;;;3.20;2.60;;;11.50;99.90;;;;;;6180796;23;20445;-84
2023/03/23 03:11:07;;;;;;;4.13;2.83;;;11.40;99.90;;;;;;6182997;23;20507;-85
2023/03/23 03:13:52;;;;;;;2.90;2.60;;;11.20;99.90;;;;;;6184095;23;20409;-86
2023/03/23 03:16:45;;;;;;;4.68;2.63;;;11.10;99.90;;;;;;6182279;23;20364;-85
2023/03/23 03:19:20;;;;;;;3.80;2.85;;;11.10;99.90;;;;;;6182741;23;20939;-84
2023/03/23 03:21:47;;;;;;;4.25;3.10;;;11.00;99.90;;;;;;6183753;23;20336;-87
2023/03/23 03:24:17;;;;;;;4.30;3.10;;;10.80;99.90;;;;;;6183309;23;20667;-85
2023/03/23 03:26:47;;;;;;;5.43;3.58;;;10.70;99.90;;;;;;6182138;23;20344;-85
2023/03/23 03:29:26;;;;;;;4.53;3.35;;;10.60;99.90;;;;;;6181198;23;20492;-84
2023/03/23 03:31:55;;;;;;;5.53;3.33;;;10.50;99.90;;;;;;6182790;23;20394;-85
2023/03/23 03:34:24;;;;;;;4.65;3.50;;;10.50;99.90;;;;;;6184622;23;20328;-85
2023/03/23 03:36:53;;;;;;;5.07;3.70;;;10.40;99.90;;;;;;6184778;23;20407;-86
2023/03/23 03:39:20;;;;;;;4.32;3.80;;;10.20;99.90;;;;;;6184887;23;20382;-86
2023/03/23 03:41:46;;;;;;;5.63;4.20;;;10.20;99.90;;;;;;6185121;23;20343;-85
2023/03/23 03:44:12;;;;;;;6.03;4.15;;;10.20;99.90;;;;;;6184027;23;20354;-86
2023/03/23 03:46:38;;;;;;;4.50;4.05;;;10.10;99.90;;;;;;6183337;23;20514;-86
2023/03/23 03:49:07;;;;;;;7.00;4.10;;;10.10;99.90;;;;;;6182245;23;20715;-84
2023/03/23 03:51:35;;;;;;;4.15;3.65;;;10.10;99.90;;;;;;6183118;23;20328;-85
2023/03/23 03:54:01;;;;;;;5.65;3.92;;;10.20;99.90;;;;;;6181370;23;20352;-85
2023/03/23 03:56:27;;;;;;;5.65;4.00;;;10.40;99.90;;;;;;6182894;23;20348;-84
2023/03/23 03:58:53;;;;;;;3.90;3.50;;;10.40;99.90;;;;;;6180726;23;20417;-83
2023/03/23 04:01:22;;;;;;;6.30;4.32;;;10.40;99.90;;;;;;6180419;23;20361;-84
2023/03/23 04:03:48;;;;;;;6.80;4.57;;;10.30;99.90;;;;;;6183629;23;20838;-84
2023/03/23 04:06:15;;;;;;;6.90;4.70;;;10.20;99.90;;;;;;6182525;23;20339;-84
2023/03/23 04:08:41;;;;;;;5.32;4.40;;;10.20;99.90;;;;;;6183146;23;20355;-84
2023/03/23 04:11:18;;;;;;;5.65;4.07;;;10.30;99.90;;;;;;6182423;23;20371;-85
2023/03/23 04:13:46;;;;;;;7.32;4.50;;;10.30;99.90;;;;;;6179570;23;20387;-85
2023/03/23 04:16:12;;;;;;;7.75;4.90;;;10.20;99.90;;;;;;6181779;23;20331;-85
2023/03/23 04:18:38;;;;;;;7.63;4.82;;;10.20;99.90;;;;;;6181198;23;20478;-84
2023/03/23 04:21:09;;;;;;;5.18;4.20;;;10.30;99.90;;;;;;6181149;23;20340;-83
2023/03/23 04:23:39;;;;;;;6.25;4.10;;;10.30;99.90;;;;;;6182359;23;20371;-85
2023/03/23 04:26:05;;;;;;;7.20;4.40;;;10.40;99.90;;;;;;6184324;23;20336;-85
2023/03/23 04:28:33;;;;;;;6.85;4.53;;;10.40;99.90;;;;;;6184142;23;20436;-85
2023/03/23 04:31:02;;;;;;;4.88;4.30;;;10.50;99.90;;;;;;6182909;23;20799;-86
2023/03/23 04:33:31;;;;;;;7.65;5.32;;;10.40;99.90;;;;;;6182844;23;20355;-84
2023/03/23 04:36:02;;;;;;;6.00;5.17;;;10.30;99.90;;;;;;6184874;23;20352;-86
2023/03/23 04:38:32;;;;;;;6.30;5.07;;;10.20;99.90;;;;;;6182360;23;20385;-84
2023/03/23 04:41:01;;;;;;;6.68;4.82;;;10.20;99.90;;;;;;6181991;23;20482;-84
2023/03/23 04:43:28;;;;;;;4.97;4.10;;;10.20;99.90;;;;;;6186595;23;20343;-85
2023/03/23 04:45:58;;;;;;;5.82;4.35;;;10.30;99.90;;;;;;6185160;23;20428;-84
2023/03/23 04:48:29;;;;;;;5.20;4.70;;;10.40;99.90;;;;;;6184933;23;20786;-84
2023/03/23 04:50:55;;;;;;;5.28;4.78;;;10.50;99.90;;;;;;6181320;23;20411;-83
2023/03/23 04:53:24;;;;;;;6.30;4.70;;;10.40;99.90;;;;;;6182617;23;20360;-82
2023/03/23 04:55:50;;;;;;;7.35;5.00;;;10.50;99.90;;;;;;6184134;23;20332;-84
2023/03/23 04:58:16;;;;;;;6.40;5.07;;;10.50;99.90;;;;;;6182897;23;20395;-85
2023/03/23 05:00:43;;;;;;;6.90;4.90;;;10.50;99.90;;;;;;6183366;23;20439;-84
2023/03/23 05:03:11;;;;;;;6.00;4.85;;;10.40;99.90;;;;;;6184456;23;20395;-84
2023/03/23 05:05:37;;;;;;;6.78;5.00;;;10.30;99.90;;;;;;6185684;23;20324;-84
2023/03/23 05:08:03;;;;;;;5.15;4.60;;;10.30;99.90;;;;;;6189722;23;20414;-84
2023/03/23 05:10:29;;;;;;;6.47;4.80;;;10.40;99.90;;;;;;6192983;23;20344;-85
2023/03/23 05:12:54;;;;;;;7.97;4.80;;;10.40;99.90;;;;;;6204529;23;20418;-84
2023/03/23 05:15:20;;;;;;;5.80;4.82;;;10.40;99.90;;;;;;6206881;23;20371;-85
2023/03/23 05:17:48;;;;;;;6.07;5.40;;;10.40;99.90;;;;;;6194066;23;20351;-84
2023/03/23 05:20:21;;;;;;;10.55;6.05;;;10.40;99.90;;;;;;6187739;23;20419;-86
2023/03/23 05:22:49;;;;;;;6.83;6.03;;;10.40;99.90;;;;;;6182942;23;20346;-86
2023/03/23 05:25:18;;;;;;;6.22;5.63;;;10.40;99.90;;;;;;6181802;23;20369;-84
2023/03/23 05:27:48;;;;;;;8.00;6.03;;;10.30;99.90;;;;;;6181894;23;20335;-86
2023/03/23 05:30:18;;;;;;;7.68;6.25;;;10.40;99.90;;;;;;6183520;23;20414;-85
2023/03/23 05:32:44;;;;;;;8.10;7.28;;;10.40;99.90;;;;;;6182766;23;20347;-85
2023/03/23 05:35:12;;;;;;;7.57;6.35;;;10.20;99.90;;;;;;6181081;23;20356;-85
2023/03/23 05:37:38;;;;;;;8.55;6.45;;;10.30;99.90;;;;;;6182189;23;20351;-86
2023/03/23 05:40:06;;;;;;;6.95;6.25;;;10.30;99.90;;;;;;6181980;23;20375;-85
2023/03/23 05:42:35;;;;;;;7.55;6.10;;;10.30;99.90;;;;;;6180745;23;20343;-83
2023/03/23 05:45:05;;;;;;;6.75;5.88;;;10.20;99.90;;;;;;6180873;23;20442;-80
2023/03/23 05:47:31;;;;;;;7.77;5.80;;;10.10;99.90;;;;;;6181365;23;20343;-84
2023/03/23 05:49:58;;;;;;;5.85;5.13;;;10.00;99.90;;;;;;6182265;23;20818;-83
2023/03/23 05:52:24;;;;;;;6.93;5.40;;;10.00;99.90;;;;;;6182952;23;20332;-84
2023/03/23 05:54:51;;;;;;;5.90;5.30;;;9.90;99.90;;;;;;6182378;23;20340;-85
2023/03/23 05:57:18;;;;;;;6.10;4.88;;;9.90;99.90;;;;;;6180321;23;20394;-83
2023/03/23 05:59:44;;;;;;;6.60;4.95;;;9.80;99.90;;;;;;6186402;23;20867;-87
2023/03/23 06:02:11;;;;;;;7.57;5.10;;;9.90;99.90;;;;;;6212646;23;20804;-83
2023/03/23 06:04:37;;;;;;;7.15;5.40;;;9.90;99.90;;;;;;6212640;23;20349;-83
2023/03/23 06:07:04;;;;;;;7.13;5.03;;;9.80;99.90;;;;;;6184307;23;20449;-82
2023/03/23 06:09:30;;;;;;;8.25;5.07;;;9.80;99.90;;;;;;6211219;23;20337;-85
2023/03/23 06:11:56;;;;;;;8.70;5.00;;;9.80;99.90;;;;;;6211799;23;20342;-84
2023/03/23 06:14:22;;;;;;;6.17;4.73;;;9.80;99.90;;;;;;6210796;23;20513;-82
2023/03/23 06:16:48;;;;;;;5.03;4.53;;;9.80;99.90;;;;;;6211544;23;20412;-82
2023/03/23 06:19:15;;;;;;;5.40;4.40;;;9.80;99.90;;;;;;6185511;23;20419;-84
2023/03/23 06:21:41;;;;;;;5.55;4.35;;;10.00;99.90;;;;;;6185251;23;20714;-86
2023/03/23 06:24:07;;;;;;;5.90;4.43;;;10.10;99.90;;;;;;6213549;23;20346;-84
2023/03/23 06:26:36;;;;;;;5.32;4.40;;;10.10;99.90;;;;;;6212236;23;20364;-83
2023/03/23 06:29:10;;;;;;;8.50;5.07;;;10.20;99.90;;;;;;6185345;23;20785;-85
2023/03/23 06:31:53;;;;;;;5.78;5.15;;;10.20;99.90;;;;;;6186703;23;20373;-85
2023/03/23 06:34:18;;;;;;;6.13;5.10;;;10.10;99.90;;;;;;6211871;23;20390;-85
2023/03/23 06:36:44;;;;;;;7.40;4.60;;;10.10;99.90;;;;;;6212448;23;20665;-83
2023/03/23 06:39:12;;;;;;;6.80;4.30;;;10.20;99.90;;;;;;6212080;23;20460;-85
2023/03/23 06:41:38;;;;;;;7.82;4.45;;;10.10;99.90;;;;;;6212419;23;20330;-84
2023/03/23 06:44:03;;;;;;;7.63;4.22;;;10.10;99.90;;;;;;6187956;23;20365;-84
2023/03/23 06:46:29;;;;;;;6.20;4.17;;;10.10;99.90;;;;;;6212002;23;20358;-85
2023/03/23 06:48:55;;;;;;;8.93;4.38;;;10.10;99.90;;;;;;6213927;23;20338;-84
2023/03/23 06:51:21;;;;;;;6.68;4.30;;;10.20;99.90;;;;;;6214306;23;20345;-83
2023/03/23 06:53:47;;;;;;;4.75;4.10;;;10.20;99.90;;;;;;6212960;23;20384;-84
2023/03/23 06:56:13;;;;;;;6.45;3.92;;;10.20;99.90;;;;;;6214061;23;20350;-83
2023/03/23 06:58:39;;;;;;;6.13;4.22;;;10.20;99.90;;;;;;6213215;23;20370;-84
2023/03/23 07:01:05;;;;;;;5.47;4.00;;;10.20;99.90;;;;;;6185312;23;20374;-83
2023/03/23 07:03:32;;;;;;;8.05;4.30;;;10.30;99.90;;;;;;6214147;23;20781;-86
2023/03/23 07:05:59;;;;;;;5.25;3.90;;;10.30;99.90;;;;;;6186142;23;20412;-83
2023/03/23 07:08:26;;;;;;;4.75;4.13;;;10.40;99.90;;;;;;6212285;23;20345;-84
2023/03/23 07:10:53;;;;;;;5.60;3.95;;;10.30;99.90;;;;;;6213246;23;20330;-82
2023/03/23 07:13:19;;;;;;;6.25;4.00;;;10.40;99.90;;;;;;6187859;23;20350;-82
2023/03/23 07:15:45;;;;;;;5.40;3.92;;;10.40;99.90;;;;;;6214325;23;20777;-85
2023/03/23 07:18:10;;;;;;;5.47;4.00;;;10.40;99.90;;;;;;6213313;23;20436;-83
2023/03/23 07:20:37;;;;;;;5.22;4.00;;;10.40;99.90;;;;;;6212797;23;20370;-84
2023/03/23 07:23:05;;;;;;;5.78;3.92;;;10.40;99.90;;;;;;6213681;23;20334;-81
2023/03/23 07:25:32;;;;;;;5.30;4.53;;;10.50;99.90;;;;;;6214456;23;20338;-86
2023/03/23 07:28:02;;;;;;;5.75;3.95;;;10.50;99.90;;;;;;6186882;23;21025;-87
2023/03/23 07:30:29;;;;;;;6.10;4.13;;;10.70;99.90;;;;;;6214894;23;20326;-86
2023/03/23 07:32:57;;;;;;;5.25;3.78;;;10.50;99.90;;;;;;6214017;23;20353;-86
2023/03/23 07:35:24;;;;;;;4.40;4.00;;;10.60;99.90;;;;;;6212523;23;20349;-85
2023/03/23 07:37:51;;;;;;;5.18;3.85;;;10.60;99.90;;;;;;6212639;23;20334;-83
2023/03/23 07:40:18;;;;;;;4.38;3.50;;;10.80;99.90;;;;;;6214578;23;20330;-83
2023/03/23 07:42:49;;;;;;;5.43;3.40;;;10.90;99.90;;;;;;6217124;23;20488;-85
2023/03/23 07:45:15;;;;;;;4.43;3.42;;;10.90;99.90;;;;;;6217103;23;20333;-83
2023/03/23 07:47:41;;;;;;;5.28;3.58;;;10.90;99.90;;;;;;6213969;23;20421;-83
2023/03/23 07:50:08;;;;;;;4.72;3.33;;;11.00;99.90;;;;;;6214731;23;20338;-84
2023/03/23 07:52:35;;;;;;;4.60;3.33;;;11.00;99.90;;;;;;6188270;23;20724;-84
2023/03/23 07:55:02;;;;;;;4.15;3.15;;;11.00;99.90;;;;;;6187896;23;20358;-86
2023/03/23 07:57:30;;;;;;;4.70;3.20;;;10.90;99.90;;;;;;6196037;23;20377;-85
2023/03/23 07:59:56;;;;;;;4.45;2.80;;;10.90;99.90;;;;;;6239158;22;20385;-83
2023/03/23 08:02:23;;;;;;;3.45;2.97;;;11.00;99.90;;;;;;6230825;22;20429;-84
2023/03/23 08:04:51;;;;;;;6.03;3.00;;;11.20;99.90;;;;;;6196683;23;20350;-84
2023/03/23 08:07:34;;;;;;;3.50;3.20;;;11.10;99.90;;;;;;6213600;23;20426;-85
2023/03/23 08:10:00;;;;;;;3.10;2.60;;;11.00;99.90;;;;;;6213541;23;20700;-83
2023/03/23 08:12:26;;;;;;;3.85;2.80;;;11.10;99.90;;;;;;6213785;23;20354;-82
2023/03/23 08:14:53;;;;;;;3.67;2.60;;;11.00;99.90;;;;;;6185993;23;20342;-86
2023/03/23 08:17:20;;;;;;;4.43;3.20;;;11.10;99.90;;;;;;6213635;23;20350;-85
2023/03/23 08:19:46;;;;;;;4.45;2.92;;;11.10;99.90;;;;;;6212866;23;20435;-85
2023/03/23 08:22:11;;;;;;;5.43;2.97;;;11.20;99.90;;;;;;6187297;23;20358;-85
2023/03/23 08:24:37;;;;;;;4.72;3.22;;;11.20;99.90;;;;;;6213774;23;20408;-84
2023/03/23 08:27:03;;;;;;;5.18;3.42;;;11.20;99.90;;;;;;6213155;23;20339;-83
2023/03/23 08:29:30;;;;;;;4.33;3.00;;;11.30;99.90;;;;;;6212794;23;20819;-84
2023/03/23 08:32:07;;;;;;;5.15;3.10;;;11.30;99.90;;;;;;6161483;23;20790;-85
2023/03/23 08:34:33;;;;;;;3.43;2.90;;;11.40;99.90;;;;;;6182693;23;20338;-83
2023/03/23 08:37:04;;;;;;;5.03;2.90;;;11.50;99.90;;;;;;6211802;23;20349;-86
2023/03/23 08:39:31;;;;;;;3.63;2.78;;;11.70;99.90;;;;;;6185510;23;20546;-85
2023/03/23 08:41:59;;;;;;;2.92;2.63;;;11.80;99.90;;;;;;6212221;23;20361;-84
2023/03/23 08:44:27;;;;;;;3.10;2.80;;;11.70;99.90;;;;;;6209677;23;20334;-85
2023/03/23 08:46:58;;;;;;;5.68;2.90;;;11.70;99.90;;;;;;6185394;23;20360;-85
2023/03/23 08:49:25;;;;;;;3.33;2.97;;;11.70;99.90;;;;;;6210243;23;20370;-85
2023/03/23 08:55:03;;;;;;;4.53;3.17;;;11.60;99.90;;;;;;6167248;23;20338;-83
2023/03/23 08:57:36;;;;;;;4.18;2.90;;;11.80;99.90;;;;;;6183819;23;20343;-82
2023/03/23 09:00:15;;;;;;;3.50;2.78;;;11.70;99.90;;;;;;6211465;23;20381;-84
2023/03/23 09:03:27;;;;;;;3.90;2.88;;;11.60;99.90;;;;;;6184707;23;20358;-84
2023/03/23 09:05:54;;;;;;;3.70;2.95;;;11.70;99.90;;;;;;6211192;23;20818;-83
2023/03/23 09:08:20;;;;;;;3.95;3.30;;;11.70;99.90;;;;;;6186050;23;20342;-84
2023/03/23 09:10:49;;;;;;;4.15;3.20;;;11.80;99.90;;;;;;6185845;23;20342;-83
2023/03/23 09:16:01;;;;;;;2.90;2.25;;;12.40;99.90;;;;;;6210458;23;20399;-84
2023/03/23 09:18:32;;;;;;;3.67;2.50;;;12.70;99.90;;;;;;6211696;23;20431;-84
2023/03/23 09:20:59;;;;;;;2.80;1.80;;;13.00;99.90;;;;;;6184617;23;20639;-83
2023/03/23 09:23:25;;;;;;;3.15;2.03;;;13.20;99.90;;;;;;6185692;23;20338;-86
2023/03/23 09:25:51;;;;;;;2.50;2.17;;;13.30;99.90;;;;;;6185527;23;20350;-83
2023/03/23 09:28:18;;;;;;;3.50;2.13;;;13.70;99.90;;;;;;6185337;23;21276;-84
2023/03/23 09:31:02;;;;;;;3.10;1.90;;;13.70;99.90;;;;;;6185583;23;20661;-84
2023/03/23 09:33:36;;;;;;;3.05;2.00;;;14.20;99.90;;;;;;6185776;23;20484;-84
2023/03/23 09:36:07;;;;;;;2.83;2.22;;;14.00;99.90;;;;;;6162291;23;20797;-85
2023/03/23 09:39:03;;;;;;;1.88;1.60;;;14.20;99.90;;;;;;6184951;23;20374;-84
2023/03/23 09:42:19;;;;;;;2.42;1.80;;;14.20;99.90;;;;;;6211771;23;20334;-85
2023/03/23 09:45:19;;;;;;;;;;;;;;;;;;;;;
2023/03/23 09:48:13;;;;;;;;;;;;;;;;;;;;;
2023/03/23 09:51:34;;;;;;;2.83;1.90;;;13.60;99.90;;;;;;6211613;23;20426;-86
2023/03/23 09:54:39;;;;;;;;;;;;;;;;;;;;;
2023/03/23 09:57:19;;;;;;;4.28;2.08;;;13.60;99.90;;;;;;6208105;23;20475;-83
2023/03/23 10:00:21;;;;;;;4.50;2.10;;;13.40;99.90;;;;;;6185165;23;20447;-84
2023/03/23 10:02:53;;;;;;;4.25;2.20;;;13.30;99.90;;;;;;6179574;23;20813;-83
2023/03/23 10:05:40;;;;;;;2.30;2.00;;;13.30;99.90;;;;;;6212134;23;20396;-84
2023/03/23 10:08:15;;;;;;;2.28;1.90;;;13.30;99.90;;;;;;6186091;23;20386;-89
2023/03/23 10:11:00;;;;;;;3.70;2.03;;;13.30;99.90;;;;;;6187226;23;20438;-86
2023/03/23 10:14:04;;;;;;;2.70;2.15;;;13.10;99.90;;;;;;6192416;23;20358;-88
2023/03/23 10:17:09;;;;;;;3.47;2.00;;;13.10;99.90;;;;;;6187621;23;20384;-88
2023/03/23 10:19:43;;;;;;;2.72;1.80;;;13.20;99.90;;;;;;6134261;23;20492;-87
2023/03/23 10:22:11;;;;;;;4.05;2.10;;;13.40;99.90;;;;;;6186564;23;20346;-85
2023/03/23 10:24:55;;;;;;;2.22;1.95;;;13.60;99.90;;;;;;6187997;23;20354;-86
2023/03/23 10:27:47;;;;;;;3.00;1.87;;;13.80;99.90;;;;;;6214129;23;20401;-88
2023/03/23 10:30:33;;;;;;;3.65;1.80;;;14.20;99.90;;;;;;6189501;23;20350;-86
2023/03/23 10:33:23;;;;;;;2.28;1.98;;;14.30;99.90;;;;;;6215429;23;20380;-86
2023/03/23 10:36:00;;;;;;;2.20;1.70;;;14.60;99.90;;;;;;6187577;23;20352;-86
2023/03/23 10:38:49;;;;;;;2.67;2.00;;;14.60;99.90;;;;;;6218273;23;20366;-87
2023/03/23 10:41:18;;;;;;;2.97;1.90;;;14.60;99.90;;;;;;6223593;23;20405;-87
2023/03/23 10:43:49;;;;;;;2.33;1.85;;;14.80;99.90;;;;;;6204242;23;20350;-86
2023/03/23 10:46:15;;;;;;;3.23;2.10;;;15.00;99.90;;;;;;6207177;23;20354;-86
2023/03/23 10:49:11;;;;;;;4.32;2.17;;;14.80;99.90;;;;;;6221026;22;20361;-85
2023/03/23 10:51:49;;;;;;;2.38;2.15;;;14.60;99.90;;;;;;6172077;23;20357;-85
2023/03/23 10:54:51;;;;;;;;;;;;;;;;;;;;;
2023/03/23 10:58:01;;;;;;;2.00;1.80;;;14.30;99.90;;;;;;6212976;23;20714;-86
2023/03/23 11:00:30;;;;;;;2.50;2.10;;;14.20;99.90;;;;;;6210588;23;20728;-88
2023/03/23 11:03:55;;;;;;;3.63;2.17;;;14.20;99.90;;;;;;6188702;23;20385;-87
2023/03/23 11:06:45;;;;;;;;;;;;;;;;;;;;;
2023/03/23 11:09:32;;;;;;;3.20;2.03;;;14.20;99.90;;;;;;6215040;23;20437;-86
2023/03/23 11:12:04;;;;;;;2.33;2.08;;;14.10;99.90;;;;;;6187842;23;20352;-87
2023/03/23 11:14:38;;;;;;;2.78;1.73;;;14.20;99.90;;;;;;6216156;23;20337;-88
2023/03/23 11:17:19;;;;;;;2.00;1.80;;;14.10;99.90;;;;;;6188574;23;20356;-88
2023/03/23 11:19:54;;;;;;;1.95;1.70;;;14.20;99.90;;;;;;6188562;23;20855;-88
2023/03/23 11:22:32;;;;;;;2.30;1.93;;;14.30;99.90;;;;;;6188933;23;20427;-87
2023/03/23 11:25:10;;;;;;;3.42;2.10;;;14.20;99.90;;;;;;6189898;23;20338;-86
2023/03/23 11:27:38;;;;;;;3.45;1.92;;;14.30;99.90;;;;;;6187849;23;20350;-87
2023/03/23 11:30:28;;;;;;;2.20;1.65;;;14.30;99.90;;;;;;6190008;23;20351;-86
2023/03/23 11:33:25;;;;;;;2.93;2.00;;;14.40;99.90;;;;;;6188480;23;20877;-87
2023/03/23 11:36:18;;;;;;;2.33;1.87;;;14.50;99.90;;;;;;6214788;23;20346;-86
2023/03/23 11:39:27;;;;;;;3.13;1.80;;;14.60;99.90;;;;;;6188474;23;20878;-86
2023/03/23 11:42:26;;;;;;;;;;;;;;;;;;;;;
2023/03/23 11:45:22;;;;;;;2.90;2.00;;;14.60;99.90;;;;;;6153740;23;20369;-87
2023/03/23 11:51:04;;;;;;;2.35;1.80;;;14.60;99.90;;;;;;6213324;23;20350;-87
2023/03/23 11:53:48;;;;;;;3.65;1.92;;;14.70;99.90;;;;;;6185897;23;20396;-86
2023/03/23 11:56:54;;;;;;;2.65;2.00;;;14.70;99.90;;;;;;6186018;23;20445;-85
2023/03/23 11:59:53;;;;;;;;;;;;;;;;;;;;;
2023/03/23 12:02:25;;;;;;;2.53;1.88;;;14.60;99.90;;;;;;6212490;23;20421;-87
2023/03/23 12:05:36;;;;;;;3.85;1.85;;;14.60;99.90;;;;;;6188827;23;20822;-88
2023/03/23 12:08:25;;;;;;;3.22;1.75;;;14.40;99.90;;;;;;6188200;23;20990;-84
2023/03/23 12:11:25;;;;;;;3.45;2.10;;;14.40;99.90;;;;;;6187657;23;20377;-84
2023/03/23 12:14:47;;;;;;;4.25;2.30;;;14.30;99.90;;;;;;6187519;23;20342;-85
2023/03/23 12:21:53;;;;;;;2.70;1.80;;;14.30;99.90;;;;;;6012661;23;20368;-86
2023/03/23 12:28:20;;;;;;;3.30;2.05;;;14.50;99.90;;;;;;6022292;23;20404;-84
2023/03/23 12:31:09;;;;;;;2.42;2.03;;;14.50;99.90;;;;;;6038555;23;20444;-84
2023/03/23 12:34:00;;;;;;;3.85;2.28;;;14.50;99.90;;;;;;6038909;23;20785;-85
2023/03/23 12:38:06;;;;;;;;;;;;;;;;;;;;;
2023/03/23 12:40:50;;;;;;;3.20;2.10;;;14.40;99.90;;;;;;5957570;23;20387;-85
2023/03/23 12:43:31;;;;;;;3.47;1.95;;;14.70;99.90;;;;;;6072546;23;20388;-84
2023/03/23 12:46:29;;;;;;;2.90;2.00;;;15.00;99.90;;;;;;6193734;23;20364;-87
2023/03/23 12:53:04;;;;;;;3.33;2.10;;;15.50;99.90;;;;;;6205253;23;20338;-86
2023/03/23 12:55:44;;;;;;;4.23;2.00;;;15.70;99.90;;;;;;6042370;23;20358;-87
2023/03/23 12:58:53;;;;;;;3.70;1.77;;;16.10;99.90;;;;;;6041233;23;20358;-85
2023/03/23 13:02:06;;;;;;;;;;;;;;;;;;;;;
2023/03/23 13:05:09;;;;;;;3.75;1.98;;;16.60;99.90;;;;;;6159357;23;20852;-85
2023/03/23 13:08:24;;;;;;;5.10;2.40;;;17.00;99.90;;;;;;6185477;23;20657;-86
2023/03/23 13:11:17;;;;;;;3.38;1.90;;;16.90;99.90;;;;;;6188956;23;20400;-84
2023/03/23 13:14:08;;;;;;;2.70;1.90;;;16.80;99.90;;;;;;6216282;23;20403;-85
2023/03/23 13:17:31;;;;;;;;;;;;;;;;;;;;;
2023/03/23 13:21:04;;;;;;;4.15;1.90;;;16.70;99.90;;;;;;6216378;23;20446;-86
2023/03/23 13:24:02;;;;;;;;;;;;;;;;;;;;;
2023/03/23 13:26:51;;;;;;;4.10;2.20;;;16.50;99.90;;;;;;6216410;23;20381;-87
2023/03/23 13:29:24;;;;;;;3.63;2.10;;;16.50;99.90;;;;;;6172059;23;20346;-85
2023/03/23 13:32:13;;;;;;;4.70;2.00;;;16.60;99.90;;;;;;6207404;23;20365;-83
2023/03/23 13:34:41;;;;;;;3.28;1.95;;;16.60;99.90;;;;;;6211350;23;20350;-86
2023/03/23 13:37:24;;;;;;;3.78;2.08;;;16.30;99.90;;;;;;6219841;23;20330;-86
2023/03/23 13:40:29;;;;;;;4.47;2.00;;;16.20;99.90;;;;;;6215805;23;20393;-85
2023/03/23 13:46:16;;;;;;;4.20;2.20;;;16.60;99.90;;;;;;6173135;23;20400;-82
2023/03/23 13:49:12;;;;;;;4.53;2.15;;;16.70;99.90;;;;;;6213493;23;20770;-85
2023/03/23 13:52:18;;;;;;;4.18;2.45;;;16.40;99.90;;;;;;6189453;23;20421;-86
2023/03/23 13:55:17;;;;;;;4.60;2.10;;;16.10;99.90;;;;;;6213476;23;20349;-88
2023/03/23 13:58:28;;;;;;;4.00;2.15;;;15.80;99.90;;;;;;6189444;23;20338;-86
2023/03/23 14:02:07;;;;;;;4.22;2.20;;;15.70;99.90;;;;;;6189717;23;20808;-87
2023/03/23 14:04:38;;;;;;;5.03;2.47;;;16.20;99.90;;;;;;6044611;23;20347;-84
2023/03/23 14:08:37;;;;;;;3.92;2.33;;;16.50;99.90;;;;;;6187837;23;20346;-85
2023/03/23 14:11:17;;;;;;;5.90;2.00;;;16.60;99.90;;;;;;6194074;23;20841;-86
2023/03/23 14:14:37;;;;;;;6.60;2.35;;;16.70;99.90;;;;;;6203155;23;20342;-85
2023/03/23 14:21:18;;;;;;;4.97;2.30;;;16.90;99.90;;;;;;6196952;23;20400;-88
2023/03/23 14:23:45;;;;;;;6.23;2.30;;;16.60;99.90;;;;;;6043902;23;20394;-86
2023/03/23 14:32:47;;;;;;;3.38;2.28;;;16.90;99.90;;;;;;6094899;23;20429;-87